Terminal Aerodrome Forecast
Issued by NWS Milwaukee/Sullivan, WI

Home | Current Version | Previous Version | Text Only | Print | Product List | Glossary On
Versions: 1 2 3 4 5 6 7 8 9 10 11 12 13 14 15 16 17 18 19 20 21 22 23 24 25 26 27 28 29 30 31 32 33 34 35 36 37 38 39 40 41 42 43 44 45 46 47 48 49 50
864
FTUS43 KMKX 031459 AAA
TAFMKE
TAF AMD
KMKE 031459Z 0315/0418 29006KT P6SM OVC023
     FM032300 27004KT P6SM BKN035
     FM041100 20004KT P6SM OVC070
     FM041500 20007KT 4SM -SN OVC030
     FM041700 19008KT 1SM -SN OVC015=

USA.gov is the U.S. government's official web portal to all federal, state and local government web resources and services.